sensor_id;sensor_type;location;lat;lon;timestamp;temperature;humidity
25668;DHT22;18003;-33.830;151.202;2023-02-01T00:00:17;25.90;99.90
25668;DHT22;18003;-33.830;151.202;2023-02-01T00:02:47;25.90;99.90
25668;DHT22;18003;-33.830;151.202;2023-02-01T00:05:17;25.90;99.90
25668;DHT22;18003;-33.830;151.202;2023-02-01T00:07:48;25.90;99.90
25668;DHT22;18003;-33.830;151.202;2023-02-01T00:10:18;26.00;99.90
25668;DHT22;18003;-33.830;151.202;2023-02-01T00:12:49;26.00;99.90
25668;DHT22;18003;-33.830;151.202;2023-02-01T00:15:19;26.00;99.90
25668;DHT22;18003;-33.830;151.202;2023-02-01T00:17:58;26.10;99.90
25668;DHT22;18003;-33.830;151.202;2023-02-01T00:20:20;26.10;99.90
25668;DHT22;18003;-33.830;151.202;2023-02-01T00:22:51;26.20;99.90
25668;DHT22;18003;-33.830;151.202;2023-02-01T00:25:21;26.20;99.90
25668;DHT22;18003;-33.830;151.202;2023-02-01T00:27:51;26.10;99.90
25668;DHT22;18003;-33.830;151.202;2023-02-01T00:30:22;26.20;99.90
25668;DHT22;18003;-33.830;151.202;2023-02-01T00:32:52;26.20;99.90
25668;DHT22;18003;-33.830;151.202;2023-02-01T00:35:22;26.30;99.90
25668;DHT22;18003;-33.830;151.202;2023-02-01T00:37:52;26.20;99.90
25668;DHT22;18003;-33.830;151.202;2023-02-01T00:40:22;26.20;99.90
25668;DHT22;18003;-33.830;151.202;2023-02-01T00:42:52;26.20;99.90
25668;DHT22;18003;-33.830;151.202;2023-02-01T00:45:22;26.20;99.90
25668;DHT22;18003;-33.830;151.202;2023-02-01T00:47:52;26.20;99.90
25668;DHT22;18003;-33.830;151.202;2023-02-01T00:50:22;26.30;99.90
25668;DHT22;18003;-33.830;151.202;2023-02-01T00:52:52;26.40;99.90
25668;DHT22;18003;-33.830;151.202;2023-02-01T00:55:23;26.30;99.90
25668;DHT22;18003;-33.830;151.202;2023-02-01T00:57:53;26.10;99.90
25668;DHT22;18003;-33.830;151.202;2023-02-01T01:00:23;26.20;99.90
25668;DHT22;18003;-33.830;151.202;2023-02-01T01:02:53;26.20;99.90
25668;DHT22;18003;-33.830;151.202;2023-02-01T01:05:24;26.30;99.90
25668;DHT22;18003;-33.830;151.202;2023-02-01T01:07:55;26.40;99.90
25668;DHT22;18003;-33.830;151.202;2023-02-01T01:10:25;26.40;99.90
25668;DHT22;18003;-33.830;151.202;2023-02-01T01:12:55;26.40;99.90
25668;DHT22;18003;-33.830;151.202;2023-02-01T01:15:26;26.20;99.90
25668;DHT22;18003;-33.830;151.202;2023-02-01T01:17:56;26.00;99.90
25668;DHT22;18003;-33.830;151.202;2023-02-01T01:20:27;25.90;99.90
25668;DHT22;18003;-33.830;151.202;2023-02-01T01:22:57;25.90;99.90
25668;DHT22;18003;-33.830;151.202;2023-02-01T01:25:27;25.70;99.90
25668;DHT22;18003;-33.830;151.202;2023-02-01T01:27:57;25.70;99.90
25668;DHT22;18003;-33.830;151.202;2023-02-01T01:30:27;25.60;99.90
25668;DHT22;18003;-33.830;151.202;2023-02-01T01:32:57;25.50;99.90
25668;DHT22;18003;-33.830;151.202;2023-02-01T01:35:28;25.50;99.90
25668;DHT22;18003;-33.830;151.202;2023-02-01T01:37:58;25.50;99.90
25668;DHT22;18003;-33.830;151.202;2023-02-01T01:40:28;25.50;99.90
25668;DHT22;18003;-33.830;151.202;2023-02-01T01:42:58;25.50;99.90
25668;DHT22;18003;-33.830;151.202;2023-02-01T01:45:33;25.50;99.90
25668;DHT22;18003;-33.830;151.202;2023-02-01T01:48:05;25.40;99.90
25668;DHT22;18003;-33.830;151.202;2023-02-01T01:50:42;25.40;99.90
25668;DHT22;18003;-33.830;151.202;2023-02-01T01:53:09;25.40;99.90
25668;DHT22;18003;-33.830;151.202;2023-02-01T01:55:41;25.40;99.90
25668;DHT22;18003;-33.830;151.202;2023-02-01T01:58:17;25.30;99.90
25668;DHT22;18003;-33.830;151.202;2023-02-01T02:00:47;25.30;99.90
25668;DHT22;18003;-33.830;151.202;2023-02-01T02:03:32;25.30;99.90
25668;DHT22;18003;-33.830;151.202;2023-02-01T02:05:59;25.30;99.90
25668;DHT22;18003;-33.830;151.202;2023-02-01T02:08:30;25.20;99.90
25668;DHT22;18003;-33.830;151.202;2023-02-01T02:11:00;25.30;99.90
25668;DHT22;18003;-33.830;151.202;2023-02-01T02:13:34;25.30;99.90
25668;DHT22;18003;-33.830;151.202;2023-02-01T02:22:18;25.20;99.90
25668;DHT22;18003;-33.830;151.202;2023-02-01T02:24:50;25.20;99.90
25668;DHT22;18003;-33.830;151.202;2023-02-01T02:33:21;25.20;99.90
25668;DHT22;18003;-33.830;151.202;2023-02-01T02:36:05;25.30;99.90
25668;DHT22;18003;-33.830;151.202;2023-02-01T02:44:54;25.20;99.90
25668;DHT22;18003;-33.830;151.202;2023-02-01T02:47:50;25.30;99.90
25668;DHT22;18003;-33.830;151.202;2023-02-01T02:50:58;25.30;99.90
25668;DHT22;18003;-33.830;151.202;2023-02-01T02:53:16;25.30;99.90
25668;DHT22;18003;-33.830;151.202;2023-02-01T02:55:49;25.20;99.90
25668;DHT22;18003;-33.830;151.202;2023-02-01T02:58:21;25.30;99.90
25668;DHT22;18003;-33.830;151.202;2023-02-01T03:01:08;25.20;99.90
25668;DHT22;18003;-33.830;151.202;2023-02-01T03:03:55;25.20;99.90
25668;DHT22;18003;-33.830;151.202;2023-02-01T03:06:36;25.20;99.90
25668;DHT22;18003;-33.830;151.202;2023-02-01T03:09:09;25.30;99.90
25668;DHT22;18003;-33.830;151.202;2023-02-01T03:11:39;25.30;99.90
25668;DHT22;18003;-33.830;151.202;2023-02-01T03:14:28;25.30;99.90
25668;DHT22;18003;-33.830;151.202;2023-02-01T03:17:11;25.20;99.90
25668;DHT22;18003;-33.830;151.202;2023-02-01T03:19:39;25.30;99.90
25668;DHT22;18003;-33.830;151.202;2023-02-01T03:22:12;25.20;99.90
25668;DHT22;18003;-33.830;151.202;2023-02-01T03:24:56;25.30;99.90
25668;DHT22;18003;-33.830;151.202;2023-02-01T03:27:31;25.20;99.90
25668;DHT22;18003;-33.830;151.202;2023-02-01T03:32:44;25.20;99.90
25668;DHT22;18003;-33.830;151.202;2023-02-01T03:44:06;25.20;99.90
25668;DHT22;18003;-33.830;151.202;2023-02-01T03:46:40;25.20;99.90
25668;DHT22;18003;-33.830;151.202;2023-02-01T03:49:06;25.20;99.90
25668;DHT22;18003;-33.830;151.202;2023-02-01T03:51:41;25.20;99.90
25668;DHT22;18003;-33.830;151.202;2023-02-01T03:54:13;25.40;99.90
25668;DHT22;18003;-33.830;151.202;2023-02-01T03:56:44;25.50;99.90
25668;DHT22;18003;-33.830;151.202;2023-02-01T03:59:16;25.70;99.90
25668;DHT22;18003;-33.830;151.202;2023-02-01T04:01:46;25.80;99.90
25668;DHT22;18003;-33.830;151.202;2023-02-01T04:04:16;25.80;99.90
25668;DHT22;18003;-33.830;151.202;2023-02-01T04:06:50;25.80;99.90
25668;DHT22;18003;-33.830;151.202;2023-02-01T04:09:20;25.90;99.90
25668;DHT22;18003;-33.830;151.202;2023-02-01T04:11:50;25.90;99.90
25668;DHT22;18003;-33.830;151.202;2023-02-01T04:14:25;26.10;99.90
25668;DHT22;18003;-33.830;151.202;2023-02-01T04:16:52;26.10;99.90
25668;DHT22;18003;-33.830;151.202;2023-02-01T04:19:23;26.20;99.90
25668;DHT22;18003;-33.830;151.202;2023-02-01T04:21:53;26.20;99.90
25668;DHT22;18003;-33.830;151.202;2023-02-01T04:24:29;26.20;99.90
25668;DHT22;18003;-33.830;151.202;2023-02-01T04:26:56;26.00;99.90
25668;DHT22;18003;-33.830;151.202;2023-02-01T04:29:26;26.00;99.90
25668;DHT22;18003;-33.830;151.202;2023-02-01T04:31:56;26.10;99.90
25668;DHT22;18003;-33.830;151.202;2023-02-01T04:34:26;26.10;99.90
25668;DHT22;18003;-33.830;151.202;2023-02-01T04:37:02;26.30;99.90
25668;DHT22;18003;-33.830;151.202;2023-02-01T04:39:48;26.50;99.90
25668;DHT22;18003;-33.830;151.202;2023-02-01T04:42:18;26.50;99.90
25668;DHT22;18003;-33.830;151.202;2023-02-01T04:44:48;26.60;99.90
25668;DHT22;18003;-33.830;151.202;2023-02-01T04:47:18;26.50;99.90
25668;DHT22;18003;-33.830;151.202;2023-02-01T04:49:48;26.50;99.90
25668;DHT22;18003;-33.830;151.202;2023-02-01T04:52:18;26.50;99.90
25668;DHT22;18003;-33.830;151.202;2023-02-01T04:55:07;26.60;99.90
25668;DHT22;18003;-33.830;151.202;2023-02-01T04:57:37;26.60;99.90
25668;DHT22;18003;-33.830;151.202;2023-02-01T05:00:09;26.60;99.90
25668;DHT22;18003;-33.830;151.202;2023-02-01T05:02:40;26.60;99.90
25668;DHT22;18003;-33.830;151.202;2023-02-01T05:05:09;26.70;99.90
25668;DHT22;18003;-33.830;151.202;2023-02-01T05:07:41;26.60;99.90
25668;DHT22;18003;-33.830;151.202;2023-02-01T05:10:11;26.60;99.90
25668;DHT22;18003;-33.830;151.202;2023-02-01T05:12:42;26.60;99.90
25668;DHT22;18003;-33.830;151.202;2023-02-01T05:15:29;26.60;99.90
25668;DHT22;18003;-33.830;151.202;2023-02-01T05:18:00;26.50;99.90
25668;DHT22;18003;-33.830;151.202;2023-02-01T05:20:31;26.70;99.90
25668;DHT22;18003;-33.830;151.202;2023-02-01T05:23:01;26.60;99.90
25668;DHT22;18003;-33.830;151.202;2023-02-01T05:25:31;26.60;99.90
25668;DHT22;18003;-33.830;151.202;2023-02-01T05:28:01;26.70;99.90
25668;DHT22;18003;-33.830;151.202;2023-02-01T05:30:31;26.70;99.90
25668;DHT22;18003;-33.830;151.202;2023-02-01T05:33:03;26.60;99.90
25668;DHT22;18003;-33.830;151.202;2023-02-01T05:35:33;26.70;99.90
25668;DHT22;18003;-33.830;151.202;2023-02-01T05:38:03;26.70;99.90
25668;DHT22;18003;-33.830;151.202;2023-02-01T05:40:33;26.80;99.90
25668;DHT22;18003;-33.830;151.202;2023-02-01T05:43:03;26.80;99.90
25668;DHT22;18003;-33.830;151.202;2023-02-01T05:45:33;26.70;99.90
25668;DHT22;18003;-33.830;151.202;2023-02-01T05:48:04;26.70;99.90
25668;DHT22;18003;-33.830;151.202;2023-02-01T05:50:34;26.70;99.90
25668;DHT22;18003;-33.830;151.202;2023-02-01T05:53:04;26.60;99.90
25668;DHT22;18003;-33.830;151.202;2023-02-01T05:55:34;26.40;99.90
25668;DHT22;18003;-33.830;151.202;2023-02-01T05:58:04;26.50;99.90
25668;DHT22;18003;-33.830;151.202;2023-02-01T06:00:34;26.80;99.90
25668;DHT22;18003;-33.830;151.202;2023-02-01T06:03:04;27.00;99.90
25668;DHT22;18003;-33.830;151.202;2023-02-01T06:05:34;27.20;99.90
25668;DHT22;18003;-33.830;151.202;2023-02-01T06:08:05;27.40;99.90
25668;DHT22;18003;-33.830;151.202;2023-02-01T06:10:35;27.50;99.90
25668;DHT22;18003;-33.830;151.202;2023-02-01T06:13:05;27.60;99.90
25668;DHT22;18003;-33.830;151.202;2023-02-01T06:15:36;28.10;99.90
25668;DHT22;18003;-33.830;151.202;2023-02-01T06:18:10;28.40;99.90
25668;DHT22;18003;-33.830;151.202;2023-02-01T06:20:40;28.50;99.90
25668;DHT22;18003;-33.830;151.202;2023-02-01T06:23:10;28.50;99.90
25668;DHT22;18003;-33.830;151.202;2023-02-01T06:25:40;28.70;99.90
25668;DHT22;18003;-33.830;151.202;2023-02-01T06:28:10;28.80;99.90
25668;DHT22;18003;-33.830;151.202;2023-02-01T06:30:40;28.80;99.90
25668;DHT22;18003;-33.830;151.202;2023-02-01T06:33:10;28.70;99.90
25668;DHT22;18003;-33.830;151.202;2023-02-01T06:35:42;29.00;99.90
25668;DHT22;18003;-33.830;151.202;2023-02-01T06:38:15;29.00;99.90
25668;DHT22;18003;-33.830;151.202;2023-02-01T06:40:51;29.10;99.90
25668;DHT22;18003;-33.830;151.202;2023-02-01T06:43:18;29.20;99.90
25668;DHT22;18003;-33.830;151.202;2023-02-01T06:45:49;28.90;99.90
25668;DHT22;18003;-33.830;151.202;2023-02-01T06:48:19;28.40;99.90
25668;DHT22;18003;-33.830;151.202;2023-02-01T06:50:49;28.20;99.90
25668;DHT22;18003;-33.830;151.202;2023-02-01T06:53:19;27.90;99.90
25668;DHT22;18003;-33.830;151.202;2023-02-01T06:55:59;27.80;99.90
25668;DHT22;18003;-33.830;151.202;2023-02-01T06:58:30;27.60;99.90
25668;DHT22;18003;-33.830;151.202;2023-02-01T07:01:07;27.60;99.90
25668;DHT22;18003;-33.830;151.202;2023-02-01T07:03:38;28.00;99.90
25668;DHT22;18003;-33.830;151.202;2023-02-01T07:06:08;28.20;99.90
25668;DHT22;18003;-33.830;151.202;2023-02-01T07:08:38;28.50;99.90
25668;DHT22;18003;-33.830;151.202;2023-02-01T07:11:10;29.10;99.90
25668;DHT22;18003;-33.830;151.202;2023-02-01T07:13:40;29.60;99.90
25668;DHT22;18003;-33.830;151.202;2023-02-01T07:16:12;29.90;99.90
25668;DHT22;18003;-33.830;151.202;2023-02-01T07:18:42;30.10;99.90
25668;DHT22;18003;-33.830;151.202;2023-02-01T07:21:12;30.00;99.90
25668;DHT22;18003;-33.830;151.202;2023-02-01T07:23:42;30.00;99.90
25668;DHT22;18003;-33.830;151.202;2023-02-01T07:26:14;30.10;99.90
25668;DHT22;18003;-33.830;151.202;2023-02-01T07:28:44;30.20;99.90
25668;DHT22;18003;-33.830;151.202;2023-02-01T07:31:16;30.20;99.90
25668;DHT22;18003;-33.830;151.202;2023-02-01T07:33:48;30.00;99.90
25668;DHT22;18003;-33.830;151.202;2023-02-01T07:36:19;30.20;99.90
25668;DHT22;18003;-33.830;151.202;2023-02-01T07:38:49;30.10;99.90
25668;DHT22;18003;-33.830;151.202;2023-02-01T07:41:19;30.00;99.90
25668;DHT22;18003;-33.830;151.202;2023-02-01T07:43:51;29.60;99.90
25668;DHT22;18003;-33.830;151.202;2023-02-01T07:46:20;28.90;99.90
25668;DHT22;18003;-33.830;151.202;2023-02-01T07:48:50;28.50;99.90
25668;DHT22;18003;-33.830;151.202;2023-02-01T07:51:21;28.20;99.90
25668;DHT22;18003;-33.830;151.202;2023-02-01T07:53:51;27.90;99.90
25668;DHT22;18003;-33.830;151.202;2023-02-01T07:56:21;27.70;99.90
25668;DHT22;18003;-33.830;151.202;2023-02-01T07:58:52;27.50;99.90
25668;DHT22;18003;-33.830;151.202;2023-02-01T08:01:22;27.40;99.90
25668;DHT22;18003;-33.830;151.202;2023-02-01T08:04:04;27.20;99.90
25668;DHT22;18003;-33.830;151.202;2023-02-01T08:06:31;27.10;99.90
25668;DHT22;18003;-33.830;151.202;2023-02-01T08:09:02;27.00;99.90
25668;DHT22;18003;-33.830;151.202;2023-02-01T08:11:32;27.00;99.90
25668;DHT22;18003;-33.830;151.202;2023-02-01T08:14:02;26.90;99.90
25668;DHT22;18003;-33.830;151.202;2023-02-01T08:16:32;26.90;99.90
25668;DHT22;18003;-33.830;151.202;2023-02-01T08:19:03;26.70;99.90
25668;DHT22;18003;-33.830;151.202;2023-02-01T08:21:33;26.70;99.90
25668;DHT22;18003;-33.830;151.202;2023-02-01T08:24:07;26.60;99.90
25668;DHT22;18003;-33.830;151.202;2023-02-01T08:26:38;26.50;99.90
25668;DHT22;18003;-33.830;151.202;2023-02-01T08:29:09;26.50;99.90
25668;DHT22;18003;-33.830;151.202;2023-02-01T08:31:41;26.50;99.90
25668;DHT22;18003;-33.830;151.202;2023-02-01T08:34:11;26.50;99.90
25668;DHT22;18003;-33.830;151.202;2023-02-01T08:36:41;26.40;99.90
25668;DHT22;18003;-33.830;151.202;2023-02-01T08:39:11;26.40;99.90
25668;DHT22;18003;-33.830;151.202;2023-02-01T08:41:41;26.30;99.90
25668;DHT22;18003;-33.830;151.202;2023-02-01T08:44:12;26.30;99.90
25668;DHT22;18003;-33.830;151.202;2023-02-01T08:46:42;26.30;99.90
25668;DHT22;18003;-33.830;151.202;2023-02-01T08:49:12;26.30;99.90
25668;DHT22;18003;-33.830;151.202;2023-02-01T08:51:42;26.20;99.90
25668;DHT22;18003;-33.830;151.202;2023-02-01T08:54:12;26.20;99.90
25668;DHT22;18003;-33.830;151.202;2023-02-01T08:56:42;26.20;99.90
25668;DHT22;18003;-33.830;151.202;2023-02-01T08:59:12;26.10;99.90
25668;DHT22;18003;-33.830;151.202;2023-02-01T09:01:42;26.10;99.90
25668;DHT22;18003;-33.830;151.202;2023-02-01T09:04:12;26.00;99.90
25668;DHT22;18003;-33.830;151.202;2023-02-01T09:06:42;26.00;99.90
25668;DHT22;18003;-33.830;151.202;2023-02-01T09:09:12;26.00;99.90
25668;DHT22;18003;-33.830;151.202;2023-02-01T09:11:42;25.90;99.90
25668;DHT22;18003;-33.830;151.202;2023-02-01T09:14:13;25.80;99.90
25668;DHT22;18003;-33.830;151.202;2023-02-01T09:16:42;25.80;99.90
25668;DHT22;18003;-33.830;151.202;2023-02-01T09:19:13;25.80;99.90
25668;DHT22;18003;-33.830;151.202;2023-02-01T09:21:43;25.80;99.90
25668;DHT22;18003;-33.830;151.202;2023-02-01T09:24:13;25.80;99.90
25668;DHT22;18003;-33.830;151.202;2023-02-01T09:26:43;25.80;99.90
25668;DHT22;18003;-33.830;151.202;2023-02-01T09:29:14;25.80;99.90
25668;DHT22;18003;-33.830;151.202;2023-02-01T09:31:44;25.80;99.90
25668;DHT22;18003;-33.830;151.202;2023-02-01T09:34:15;26.10;99.90
25668;DHT22;18003;-33.830;151.202;2023-02-01T09:36:44;26.60;99.90
25668;DHT22;18003;-33.830;151.202;2023-02-01T09:39:14;27.00;99.90
25668;DHT22;18003;-33.830;151.202;2023-02-01T09:44:53;27.30;99.90
25668;DHT22;18003;-33.830;151.202;2023-02-01T09:47:22;27.50;99.90
25668;DHT22;18003;-33.830;151.202;2023-02-01T09:52:43;28.30;99.90
25668;DHT22;18003;-33.830;151.202;2023-02-01T09:55:23;28.60;99.90
25668;DHT22;18003;-33.830;151.202;2023-02-01T09:58:02;29.10;99.90
25668;DHT22;18003;-33.830;151.202;2023-02-01T10:00:33;29.40;99.90
25668;DHT22;18003;-33.830;151.202;2023-02-01T10:02:58;29.60;99.90
25668;DHT22;18003;-33.830;151.202;2023-02-01T10:08:19;29.70;99.90
25668;DHT22;18003;-33.830;151.202;2023-02-01T10:10:48;29.70;99.90
25668;DHT22;18003;-33.830;151.202;2023-02-01T10:13:40;30.00;99.90
25668;DHT22;18003;-33.830;151.202;2023-02-01T10:16:16;30.00;99.90
25668;DHT22;18003;-33.830;151.202;2023-02-01T10:19:15;29.90;99.90
25668;DHT22;18003;-33.830;151.202;2023-02-01T10:21:53;28.90;99.90
25668;DHT22;18003;-33.830;151.202;2023-02-01T10:24:53;28.10;99.90
25668;DHT22;18003;-33.830;151.202;2023-02-01T10:27:34;27.60;99.90
25668;DHT22;18003;-33.830;151.202;2023-02-01T10:30:18;27.20;99.90
25668;DHT22;18003;-33.830;151.202;2023-02-01T10:32:47;27.00;99.90
25668;DHT22;18003;-33.830;151.202;2023-02-01T10:35:22;26.90;99.90
25668;DHT22;18003;-33.830;151.202;2023-02-01T10:37:53;26.80;99.90
25668;DHT22;18003;-33.830;151.202;2023-02-01T10:40:24;26.70;99.90
25668;DHT22;18003;-33.830;151.202;2023-02-01T10:43:01;26.60;99.90
25668;DHT22;18003;-33.830;151.202;2023-02-01T10:45:33;26.60;99.90
25668;DHT22;18003;-33.830;151.202;2023-02-01T10:48:04;26.50;99.90
25668;DHT22;18003;-33.830;151.202;2023-02-01T10:53:25;26.40;99.90
25668;DHT22;18003;-33.830;151.202;2023-02-01T10:55:56;26.30;99.90
25668;DHT22;18003;-33.830;151.202;2023-02-01T10:58:30;26.30;99.90
25668;DHT22;18003;-33.830;151.202;2023-02-01T11:01:02;26.30;99.90
25668;DHT22;18003;-33.830;151.202;2023-02-01T11:03:54;26.20;99.90
25668;DHT22;18003;-33.830;151.202;2023-02-01T11:06:38;26.10;99.90
25668;DHT22;18003;-33.830;151.202;2023-02-01T11:19:51;26.00;99.90
25668;DHT22;18003;-33.830;151.202;2023-02-01T11:22:18;25.90;99.90
25668;DHT22;18003;-33.830;151.202;2023-02-01T11:24:48;25.90;99.90
25668;DHT22;18003;-33.830;151.202;2023-02-01T11:27:20;25.90;99.90
25668;DHT22;18003;-33.830;151.202;2023-02-01T11:29:51;25.80;99.90
25668;DHT22;18003;-33.830;151.202;2023-02-01T11:32:22;25.80;99.90
25668;DHT22;18003;-33.830;151.202;2023-02-01T11:35:00;25.70;99.90
25668;DHT22;18003;-33.830;151.202;2023-02-01T11:37:30;25.70;99.90
25668;DHT22;18003;-33.830;151.202;2023-02-01T11:40:02;25.70;99.90
25668;DHT22;18003;-33.830;151.202;2023-02-01T11:42:31;25.70;99.90
25668;DHT22;18003;-33.830;151.202;2023-02-01T11:45:19;25.70;99.90
25668;DHT22;18003;-33.830;151.202;2023-02-01T11:47:51;25.70;99.90
25668;DHT22;18003;-33.830;151.202;2023-02-01T11:50:38;25.60;99.90
25668;DHT22;18003;-33.830;151.202;2023-02-01T11:53:22;25.60;99.90
25668;DHT22;18003;-33.830;151.202;2023-02-01T11:56:15;25.60;99.90
25668;DHT22;18003;-33.830;151.202;2023-02-01T12:12:24;25.40;99.90
25668;DHT22;18003;-33.830;151.202;2023-02-01T12:18:08;25.40;99.90
25668;DHT22;18003;-33.830;151.202;2023-02-01T12:23:36;25.30;99.90
25668;DHT22;18003;-33.830;151.202;2023-02-01T12:26:22;25.30;99.90
25668;DHT22;18003;-33.830;151.202;2023-02-01T12:34:38;25.30;99.90
25668;DHT22;18003;-33.830;151.202;2023-02-01T12:37:17;25.20;99.90
25668;DHT22;18003;-33.830;151.202;2023-02-01T12:42:25;25.20;99.90
25668;DHT22;18003;-33.830;151.202;2023-02-01T12:44:58;25.20;99.90
25668;DHT22;18003;-33.830;151.202;2023-02-01T12:47:32;25.20;99.90
25668;DHT22;18003;-33.830;151.202;2023-02-01T12:50:03;25.10;99.90
25668;DHT22;18003;-33.830;151.202;2023-02-01T12:52:42;25.10;99.90
25668;DHT22;18003;-33.830;151.202;2023-02-01T12:55:20;25.10;99.90
25668;DHT22;18003;-33.830;151.202;2023-02-01T12:57:55;25.10;99.90
25668;DHT22;18003;-33.830;151.202;2023-02-01T13:00:32;25.10;99.90
25668;DHT22;18003;-33.830;151.202;2023-02-01T13:03:26;25.10;99.90
25668;DHT22;18003;-33.830;151.202;2023-02-01T13:08:17;25.10;99.90
25668;DHT22;18003;-33.830;151.202;2023-02-01T13:10:56;25.10;99.90
25668;DHT22;18003;-33.830;151.202;2023-02-01T13:16:13;25.00;99.90
25668;DHT22;18003;-33.830;151.202;2023-02-01T13:18:41;25.00;99.90
25668;DHT22;18003;-33.830;151.202;2023-02-01T13:23:49;25.00;99.90
25668;DHT22;18003;-33.830;151.202;2023-02-01T13:26:20;25.00;99.90
25668;DHT22;18003;-33.830;151.202;2023-02-01T13:29:01;25.00;99.90
25668;DHT22;18003;-33.830;151.202;2023-02-01T13:31:35;24.90;99.90
25668;DHT22;18003;-33.830;151.202;2023-02-01T13:45:23;25.00;99.90
25668;DHT22;18003;-33.830;151.202;2023-02-01T13:47:50;24.90;99.90
25668;DHT22;18003;-33.830;151.202;2023-02-01T13:50:29;24.90;99.90
25668;DHT22;18003;-33.830;151.202;2023-02-01T13:53:00;24.90;99.90
25668;DHT22;18003;-33.830;151.202;2023-02-01T13:58:42;24.90;99.90
25668;DHT22;18003;-33.830;151.202;2023-02-01T14:00:53;24.90;99.90
25668;DHT22;18003;-33.830;151.202;2023-02-01T14:03:42;24.90;99.90
25668;DHT22;18003;-33.830;151.202;2023-02-01T14:05:57;24.90;99.90
25668;DHT22;18003;-33.830;151.202;2023-02-01T14:08:41;24.90;99.90
25668;DHT22;18003;-33.830;151.202;2023-02-01T14:11:34;24.90;99.90
25668;DHT22;18003;-33.830;151.202;2023-02-01T14:14:06;24.90;99.90
25668;DHT22;18003;-33.830;151.202;2023-02-01T14:16:31;24.90;99.90
25668;DHT22;18003;-33.830;151.202;2023-02-01T14:19:03;24.90;99.90
25668;DHT22;18003;-33.830;151.202;2023-02-01T14:21:34;24.90;99.90
25668;DHT22;18003;-33.830;151.202;2023-02-01T14:26:44;24.90;99.90
25668;DHT22;18003;-33.830;151.202;2023-02-01T14:29:21;24.90;99.90
25668;DHT22;18003;-33.830;151.202;2023-02-01T14:34:51;24.90;99.90
25668;DHT22;18003;-33.830;151.202;2023-02-01T14:37:24;24.90;99.90
25668;DHT22;18003;-33.830;151.202;2023-02-01T14:39:58;24.80;99.90
25668;DHT22;18003;-33.830;151.202;2023-02-01T14:42:49;24.80;99.90
25668;DHT22;18003;-33.830;151.202;2023-02-01T14:50:50;24.80;99.90
25668;DHT22;18003;-33.830;151.202;2023-02-01T14:53:21;24.80;99.90
25668;DHT22;18003;-33.830;151.202;2023-02-01T14:56:08;24.80;99.90
25668;DHT22;18003;-33.830;151.202;2023-02-01T15:01:34;24.80;99.90
25668;DHT22;18003;-33.830;151.202;2023-02-01T15:04:13;24.80;99.90
25668;DHT22;18003;-33.830;151.202;2023-02-01T15:06:56;24.80;99.90
25668;DHT22;18003;-33.830;151.202;2023-02-01T15:09:33;24.80;99.90
25668;DHT22;18003;-33.830;151.202;2023-02-01T15:12:16;24.80;99.90
25668;DHT22;18003;-33.830;151.202;2023-02-01T15:14:48;24.80;99.90
25668;DHT22;18003;-33.830;151.202;2023-02-01T15:17:27;24.80;99.90
25668;DHT22;18003;-33.830;151.202;2023-02-01T15:20:00;24.80;99.90
25668;DHT22;18003;-33.830;151.202;2023-02-01T15:22:31;24.70;99.90
25668;DHT22;18003;-33.830;151.202;2023-02-01T15:25:01;24.80;99.90
25668;DHT22;18003;-33.830;151.202;2023-02-01T15:27:32;24.70;99.90
25668;DHT22;18003;-33.830;151.202;2023-02-01T15:30:16;24.70;99.90
25668;DHT22;18003;-33.830;151.202;2023-02-01T15:32:44;24.70;99.90
25668;DHT22;18003;-33.830;151.202;2023-02-01T15:35:35;24.70;99.90
25668;DHT22;18003;-33.830;151.202;2023-02-01T15:41:05;24.70;99.90
25668;DHT22;18003;-33.830;151.202;2023-02-01T15:44:05;24.70;99.90
25668;DHT22;18003;-33.830;151.202;2023-02-01T15:46:21;24.70;99.90
25668;DHT22;18003;-33.830;151.202;2023-02-01T15:48:50;24.70;99.90
25668;DHT22;18003;-33.830;151.202;2023-02-01T15:51:22;24.70;99.90
25668;DHT22;18003;-33.830;151.202;2023-02-01T15:53:54;24.70;99.90
25668;DHT22;18003;-33.830;151.202;2023-02-01T15:56:26;24.60;99.90
25668;DHT22;18003;-33.830;151.202;2023-02-01T15:59:00;24.60;99.90
25668;DHT22;18003;-33.830;151.202;2023-02-01T16:01:34;24.70;99.90
25668;DHT22;18003;-33.830;151.202;2023-02-01T16:06:50;24.60;99.90
25668;DHT22;18003;-33.830;151.202;2023-02-01T16:09:34;24.60;99.90
25668;DHT22;18003;-33.830;151.202;2023-02-01T16:12:00;24.60;99.90
25668;DHT22;18003;-33.830;151.202;2023-02-01T16:14:31;24.60;99.90
25668;DHT22;18003;-33.830;151.202;2023-02-01T16:17:01;24.60;99.90
25668;DHT22;18003;-33.830;151.202;2023-02-01T16:19:31;24.60;99.90
25668;DHT22;18003;-33.830;151.202;2023-02-01T16:22:01;24.60;99.90
25668;DHT22;18003;-33.830;151.202;2023-02-01T16:24:31;24.50;99.90
25668;DHT22;18003;-33.830;151.202;2023-02-01T16:27:01;24.50;99.90
25668;DHT22;18003;-33.830;151.202;2023-02-01T16:29:31;24.50;99.90
25668;DHT22;18003;-33.830;151.202;2023-02-01T16:32:01;24.50;99.90
25668;DHT22;18003;-33.830;151.202;2023-02-01T16:34:31;24.50;99.90
25668;DHT22;18003;-33.830;151.202;2023-02-01T16:37:01;24.50;99.90
25668;DHT22;18003;-33.830;151.202;2023-02-01T16:39:31;24.50;99.90
25668;DHT22;18003;-33.830;151.202;2023-02-01T16:42:08;24.50;99.90
25668;DHT22;18003;-33.830;151.202;2023-02-01T16:44:33;24.50;99.90
25668;DHT22;18003;-33.830;151.202;2023-02-01T16:47:03;24.50;99.90
25668;DHT22;18003;-33.830;151.202;2023-02-01T16:49:34;24.50;99.90
25668;DHT22;18003;-33.830;151.202;2023-02-01T16:52:04;24.50;99.90
25668;DHT22;18003;-33.830;151.202;2023-02-01T16:54:34;24.50;99.90
25668;DHT22;18003;-33.830;151.202;2023-02-01T16:57:04;24.50;99.90
25668;DHT22;18003;-33.830;151.202;2023-02-01T16:59:34;24.50;99.90
25668;DHT22;18003;-33.830;151.202;2023-02-01T17:02:04;24.50;99.90
25668;DHT22;18003;-33.830;151.202;2023-02-01T17:04:34;24.50;99.90
25668;DHT22;18003;-33.830;151.202;2023-02-01T17:07:04;24.50;99.90
25668;DHT22;18003;-33.830;151.202;2023-02-01T17:09:36;24.50;99.90
25668;DHT22;18003;-33.830;151.202;2023-02-01T17:12:21;24.40;99.90
25668;DHT22;18003;-33.830;151.202;2023-02-01T17:14:38;24.40;99.90
25668;DHT22;18003;-33.830;151.202;2023-02-01T17:17:10;24.40;99.90
25668;DHT22;18003;-33.830;151.202;2023-02-01T17:19:40;24.40;99.90
25668;DHT22;18003;-33.830;151.202;2023-02-01T17:22:10;24.40;99.90